TimeCET,TemperatureF,Dew PointF,Humidity,Sea Level PressureIn,VisibilityMPH,Wind Direction,Wind SpeedMPH,Gust SpeedMPH,PrecipitationIn,Events,Conditions,WindDirDegrees,DateUTC
12:00 AM,48.2,44.6,87,29.80,6.2,NE,8.1,-,N/A,,Light Drizzle,50,2012-02-01 23:00:00
12:30 AM,48.2,46.4,93,29.80,6.2,NE,11.5,-,N/A,Rain,Light Rain,40,2012-02-01 23:30:00
1:00 AM,48,46,89,29.81,5,ENE,17.3,,,Rain,Light Rain,60,2012-02-02 00:00:00
1:00 AM,48.2,46.4,93,29.80,5.0,NE,16.1,-,N/A,Rain,Light Rain,50,2012-02-02 00:00:00
1:30 AM,46.4,44.6,93,29.80,6.2,NE,17.3,-,N/A,,Mostly Cloudy,40,2012-02-02 00:30:00
2:00 AM,46.4,44.6,93,29.80,6.2,NE,17.3,-,N/A,,Mostly Cloudy,40,2012-02-02 01:00:00
2:30 AM,46.4,42.8,87,29.77,6.2,NE,19.6,-,N/A,,Mostly Cloudy,40,2012-02-02 01:30:00
3:00 AM,46.4,42.8,87,29.77,5.6,NE,17.3,-,N/A,Rain,Light Rain,40,2012-02-02 02:00:00
3:30 AM,44.6,42.8,93,29.77,5.0,NE,16.1,-,N/A,Rain,Light Rain,50,2012-02-02 02:30:00
4:00 AM,44.6,42.8,93,29.77,5.0,NE,17.3,-,N/A,Rain,Light Rain,40,2012-02-02 03:00:00
4:30 AM,44.6,41.0,87,29.77,5.0,NE,18.4,-,N/A,Rain,Light Rain,40,2012-02-02 03:30:00
5:00 AM,44.6,41.0,87,29.77,5.0,NE,16.1,-,N/A,Rain,Light Rain,50,2012-02-02 04:00:00
5:30 AM,42.8,41.0,93,29.77,5.0,NE,15.0,-,N/A,Rain,Light Rain,50,2012-02-02 04:30:00
6:00 AM,42.8,41.0,93,29.80,5.0,NE,13.8,-,N/A,Rain,Light Rain,50,2012-02-02 05:00:00
6:30 AM,42.8,41.0,93,29.77,5.6,NE,16.1,-,N/A,Rain,Light Rain,50,2012-02-02 05:30:00
7:00 AM,43,41,88,29.79,6,ENE,15.0,,,Rain,Light Drizzle,60,2012-02-02 06:00:00
7:00 AM,42.8,41.0,93,29.77,6.2,NE,16.1,-,N/A,,Light Drizzle,50,2012-02-02 06:00:00
7:30 AM,42.8,39.2,87,29.77,6.2,NE,18.4,29.9,N/A,,Light Drizzle,50,2012-02-02 06:30:00
8:00 AM,42.8,39.2,87,29.77,6.2,NE,18.4,-,N/A,,Scattered Clouds,50,2012-02-02 07:00:00
8:30 AM,42.8,39.2,87,29.77,6.2,NE,19.6,-,N/A,,Scattered Clouds,50,2012-02-02 07:30:00
9:00 AM,42.8,39.2,87,29.77,6.2,NE,17.3,-,N/A,,Scattered Clouds,50,2012-02-02 08:00:00
9:30 AM,44.6,39.2,81,29.77,6.2,NE,16.1,-,N/A,,Scattered Clouds,40,2012-02-02 08:30:00
10:00 AM,44.6,39.2,81,29.80,6.2,NE,15.0,-,N/A,,Scattered Clouds,40,2012-02-02 09:00:00
10:30 AM,44.6,39.2,81,29.80,6.2,NNE,15.0,-,N/A,,Overcast,30,2012-02-02 09:30:00
11:00 AM,46.4,39.2,76,29.80,6.2,NE,18.4,-,N/A,,Overcast,40,2012-02-02 10:00:00
11:30 AM,46.4,39.2,76,29.80,5.0,NE,18.4,-,N/A,Rain,Light Rain,40,2012-02-02 10:30:00
12:00 PM,44.6,41.0,87,29.83,4.3,NNE,15.0,-,N/A,Rain,Light Rain,30,2012-02-02 11:00:00
12:30 PM,44.6,41.0,87,29.80,4.3,NE,16.1,-,N/A,,Overcast,40,2012-02-02 11:30:00
1:00 PM,45,40,78,29.81,6,NE,17.3,,,,Partly Cloudy,50,2012-02-02 12:00:00
1:00 PM,44.6,41.0,87,29.80,4.3,NNE,19.6,-,N/A,,Overcast,30,2012-02-02 12:00:00
1:30 PM,44.6,39.2,81,29.80,4.3,NNE,18.4,-,N/A,,Overcast,30,2012-02-02 12:30:00
2:00 PM,46.4,39.2,76,29.77,4.3,NNE,19.6,34.5,N/A,,Overcast,30,2012-02-02 13:00:00
2:30 PM,46.4,39.2,76,29.77,5.6,NNE,24.2,35.7,N/A,,Mostly Cloudy,30,2012-02-02 13:30:00
3:00 PM,46.4,37.4,71,29.77,5.0,NNE,26.5,-,N/A,,Mostly Cloudy,30,2012-02-02 14:00:00
3:08 PM,44.6,37.4,76,29.80,5.0,NNE,26.5,38.0,N/A,,Mostly Cloudy,30,2012-02-02 14:08:00
3:30 PM,44.6,37.4,76,29.80,5.0,NNE,25.3,-,N/A,,Mostly Cloudy,30,2012-02-02 14:30:00
4:00 PM,44.6,39.2,81,29.80,5.0,NNE,24.2,-,N/A,,Mostly Cloudy,30,2012-02-02 15:00:00
4:30 PM,44.6,39.2,81,29.80,5.0,NNE,19.6,-,N/A,,Mostly Cloudy,30,2012-02-02 15:30:00
5:00 PM,44.6,37.4,76,29.80,5.0,NNE,20.7,-,N/A,,Mostly Cloudy,20,2012-02-02 16:00:00
5:30 PM,44.6,37.4,76,29.80,5.0,NNE,15.0,-,N/A,,Mostly Cloudy,20,2012-02-02 16:30:00
6:00 PM,44.6,37.4,76,29.80,5.0,NNE,18.4,-,N/A,,Mostly Cloudy,20,2012-02-02 17:00:00
6:30 PM,44.6,37.4,76,29.80,5.0,NNE,19.6,-,N/A,,Mostly Cloudy,30,2012-02-02 17:30:00
7:00 PM,45,37,66,29.83,9,NE,16.1,,,,Overcast,50,2012-02-02 18:00:00
7:00 PM,44.6,37.4,76,29.83,4.3,NNE,15.0,28.8,N/A,,Mostly Cloudy,30,2012-02-02 18:00:00
7:30 PM,44.6,37.4,76,29.83,4.3,NNE,18.4,-,N/A,,Mostly Cloudy,30,2012-02-02 18:30:00
8:00 PM,44.6,37.4,76,29.83,4.3,NNE,15.0,-,N/A,,Mostly Cloudy,30,2012-02-02 19:00:00
8:30 PM,42.8,37.4,81,29.86,4.3,NE,18.4,-,N/A,,Scattered Clouds,40,2012-02-02 19:30:00
9:00 PM,44.6,37.4,76,29.86,4.3,NNE,17.3,-,N/A,,Scattered Clouds,30,2012-02-02 20:00:00
9:30 PM,42.8,37.4,81,29.86,5.6,NE,17.3,-,N/A,,Light Drizzle,40,2012-02-02 20:30:00
10:00 PM,42.8,37.4,81,29.86,6.2,NNE,17.3,-,N/A,,Light Drizzle,30,2012-02-02 21:00:00
10:30 PM,42.8,37.4,81,29.86,6.2,NE,18.4,29.9,N/A,,Partly Cloudy,40,2012-02-02 21:30:00
11:00 PM,42.8,37.4,81,29.86,6.2,NE,16.1,-,N/A,,Scattered Clouds,40,2012-02-02 22:00:00
11:30 PM,42.8,37.4,81,29.89,6.2,NE,19.6,-,N/A,,Scattered Clouds,40,2012-02-02 22:30:00